Airfield :
LOGIN :

Register | Disclaimer

   EN    FR    IT 

 










Legend :    VFR   Marginal VFR   IFR   Intensive IFR   Very Intensive IFR
Visi :
Ceiling :
>= 8 km
>= 3000ft
5 to 8 km
1000 to 3000 ft
1500m to 5 km
500 to 1000 ft
800 to 1500m
200 to 500 ft
< 800m
< 200 ft
Symbols :   Thunderstorms  Fog  Heavy snow  Heavy precipitations  Wind > 20 kt
SIGMETs :     Misc.  Thunderstorms  Icing  Turbulence  Mountain Waves  Volcanic Ashes






- Airport Elevation : 584 ft


LFPV - Villacoublay Vélizy

CURRENT METAR :
  • 180300Z AUTO 05009KT 0800 0550 R27/0700D R09/1100D FG VV/// 02/02 Q1037 TEMPO 3000 BR BECMG OVC008

EXPIRED METARs :
  • 180230Z AUTO 05007KT 4400 BR BKN003 BKN007 02/02 Q1038 BECMG OVC008
  • 180200Z AUTO 04006KT 6000 NSC 02/02 Q1037
  • 180130Z AUTO 04006KT 9000 NSC 02/02 Q1037 TEMPO 3000 BR BECMG OVC004
  • 180100Z AUTO 04004KT 7000 NSC 01/00 Q1038 TEMPO 3000 BR BECMG OVC004
  • 180030Z AUTO 06003KT 6000 NSC 01/01 Q1038 TEMPO 3000 BR BECMG OVC004

TAF TAF LFPV
Valid from the 18 at 03:00 until the 19 at 03:00 UTC


180200Z 1803/1903 32005KT 9999 OVC008 TX05/1815Z TN02/1803Z
TEMPO 1803/1807 3000 BR
BECMG 1807/1808 BKN008
BECMG 1812/1814 OVC014



MET'MAP, your aeronautical weather chart ! - Copyright ORBIFLY December 2007 - Disclaimer

ORBIFLY MET'MAP TEAM :

Programming & Development : Alexandra Zaïnal
Concept & original design : Baudouin d'Aumeries
Assistance for programming : Marc-Olivier Méhu
Technical & hardware support : Manuel Goepfert

Contact : metmap@orbifly.com




SOURCES & CREDITS :

   NOAA